Time;durP1;ratioP1;P1;durP2;ratioP2;P2;SDS_P1;SDS_P2;PMS_P1;PMS_P2;Temp;Humidity;BMP_temperature;BMP_pressure;BME280_temperature;BME280_humidity;BME280_pressure;Samples;Min_cycle;Max_cycle;Signal;HPM_P1;HPM_P2
2022/03/12 00:02:05;;;;;;;;;;;6.20;42.80;;;;;;2294508;58;20080;-74
2022/03/12 00:04:32;;;;;;;;;;;6.20;43.20;;;;;;2302991;55;20084;-74
2022/03/12 00:06:59;;;;;;;;;;;6.20;42.90;;;;;;2299677;55;20324;-74
2022/03/12 00:09:25;;;;;;;;;;;6.20;42.10;;;;;;2293297;58;20076;-75
2022/03/12 00:11:55;;;;;;;;;;;6.20;42.00;;;;;;2293390;58;20383;-75
2022/03/12 00:14:23;;;;;;;;;;;6.10;41.90;;;;;;2318611;55;20136;-74
2022/03/12 00:16:49;;;;;;;;;;;6.10;42.30;;;;;;2310186;55;20112;-75
2022/03/12 00:19:16;;;;;;;;;;;6.00;42.20;;;;;;2293361;58;20080;-75
2022/03/12 00:21:42;;;;;;;;;;;6.00;42.10;;;;;;2293651;58;20072;-74
2022/03/12 00:24:12;;;;;;;;;;;6.00;43.20;;;;;;2294432;58;20327;-74
2022/03/12 00:26:41;;;;;;;;;;;6.10;43.50;;;;;;2346477;55;20072;-75
2022/03/12 00:29:12;;;;;;;;;;;6.00;44.20;;;;;;2322166;55;20140;-75
2022/03/12 00:31:40;;;;;;;;;;;6.00;43.70;;;;;;2294072;58;20144;-75
2022/03/12 00:34:06;;;;;;;;;;;6.00;44.70;;;;;;2292729;58;20064;-75
2022/03/12 00:36:33;;;;;;;;;;;6.00;43.50;;;;;;2294255;58;20084;-75
2022/03/12 00:38:59;;;;;;;;;;;5.90;42.10;;;;;;2293129;58;20068;-75
2022/03/12 00:41:26;;;;;;;;;;;5.90;41.80;;;;;;2293592;58;20104;-75
2022/03/12 00:43:52;;;;;;;;;;;5.90;42.70;;;;;;2293953;58;20200;-75
2022/03/12 00:46:19;;;;;;;;;;;5.80;42.10;;;;;;2293738;58;20124;-75
2022/03/12 00:48:46;;;;;;;;;;;5.80;42.00;;;;;;2293782;58;20136;-75
2022/03/12 00:51:12;;;;;;;;;;;5.80;42.00;;;;;;2296662;55;20076;-75
2022/03/12 00:53:40;;;;;;;;;;;5.80;41.40;;;;;;2302544;55;20088;-75
2022/03/12 00:56:07;;;;;;;;;;;5.70;42.40;;;;;;2293697;58;20155;-75
2022/03/12 00:58:34;;;;;;;;;;;5.80;41.90;;;;;;2293697;58;20407;-75
2022/03/12 01:01:01;;;;;;;;;;;5.70;42.70;;;;;;2292990;58;20323;-75
2022/03/12 01:03:28;;;;;;;;;;;5.70;43.20;;;;;;2292630;58;20061;-75
2022/03/12 01:05:57;;;;;;;;;;;5.70;43.70;;;;;;2293949;58;20090;-75
2022/03/12 01:08:24;;;;;;;;;;;5.70;44.40;;;;;;2293151;58;20124;-75
2022/03/12 01:10:51;;;;;;;;;;;5.70;43.70;;;;;;2293842;58;20159;-75
2022/03/12 01:13:18;;;;;;;;;;;5.70;44.10;;;;;;2293510;58;20088;-76
2022/03/12 01:15:45;;;;;;;;;;;5.70;44.30;;;;;;2294205;58;20125;-75
2022/03/12 01:18:13;;;;;;;;;;;5.60;42.40;;;;;;2293644;58;20399;-76
2022/03/12 01:20:40;;;;;;;;;;;5.60;42.00;;;;;;2383211;55;20064;-76
2022/03/12 01:23:07;;;;;;;;;;;5.50;42.50;;;;;;2294337;58;20083;-75
2022/03/12 01:25:33;;;;;;;;;;;5.50;42.00;;;;;;2293423;58;20088;-76
2022/03/12 01:28:00;;;;;;;;;;;5.50;41.90;;;;;;2294020;58;20085;-76
2022/03/12 01:30:27;;;;;;;;;;;5.50;42.20;;;;;;2293657;58;20132;-76
2022/03/12 01:32:54;;;;;;;;;;;5.50;41.70;;;;;;2293846;58;20144;-76
2022/03/12 01:35:21;;;;;;;;;;;5.40;42.00;;;;;;2294142;58;20095;-76
2022/03/12 01:37:48;;;;;;;;;;;5.40;42.70;;;;;;2294255;58;20076;-76
2022/03/12 01:40:14;;;;;;;;;;;5.40;43.90;;;;;;2305712;55;20064;-76
2022/03/12 01:42:43;;;;;;;;;;;5.40;42.00;;;;;;2294089;58;20100;-76
2022/03/12 01:45:10;;;;;;;;;;;5.30;42.30;;;;;;2300166;55;20336;-76
2022/03/12 01:47:37;;;;;;;;;;;5.40;42.60;;;;;;2293896;58;20073;-74
2022/03/12 01:50:07;;;;;;;;;;;5.30;42.30;;;;;;2293209;58;20136;-76
2022/03/12 01:52:34;;;;;;;;;;;5.30;41.90;;;;;;2292949;58;20084;-76
2022/03/12 01:55:00;;;;;;;;;;;5.30;45.20;;;;;;2293689;58;20394;-76
2022/03/12 01:57:29;;;;;;;;;;;5.30;44.40;;;;;;2294039;58;20068;-75
2022/03/12 01:59:56;;;;;;;;;;;5.20;43.70;;;;;;2293776;58;20085;-74
2022/03/12 02:02:23;;;;;;;;;;;5.30;43.80;;;;;;2293611;58;20092;-74
2022/03/12 02:04:52;;;;;;;;;;;5.30;44.20;;;;;;2293496;58;20287;-76
2022/03/12 02:07:21;;;;;;;;;;;5.20;43.00;;;;;;2347604;55;20092;-74
2022/03/12 02:09:49;;;;;;;;;;;5.20;43.10;;;;;;2292082;58;20183;-76
2022/03/12 02:12:15;;;;;;;;;;;5.10;43.30;;;;;;2294113;58;20080;-76
2022/03/12 02:14:42;;;;;;;;;;;5.10;42.60;;;;;;2294366;58;20076;-76
2022/03/12 02:17:09;;;;;;;;;;;5.10;42.60;;;;;;2300464;55;20145;-75
2022/03/12 02:19:36;;;;;;;;;;;5.10;43.10;;;;;;2469055;54;70051;-81
2022/03/12 02:22:04;;;;;;;;;;;5.10;43.50;;;;;;2297636;58;20151;-81
2022/03/12 02:24:31;;;;;;;;;;;5.10;43.30;;;;;;2297601;58;20065;-81
2022/03/12 02:26:59;;;;;;;;;;;5.10;43.70;;;;;;2532491;55;20091;-80
2022/03/12 02:29:26;;;;;;;;;;;5.00;43.80;;;;;;2294566;58;20080;-81
2022/03/12 02:31:56;;;;;;;;;;;5.00;44.20;;;;;;2530425;55;20049;-80
2022/03/12 02:34:23;;;;;;;;;;;5.00;45.60;;;;;;2295662;58;20123;-81
2022/03/12 02:36:50;;;;;;;;;;;5.00;44.30;;;;;;2294096;58;20528;-81
2022/03/12 02:39:17;;;;;;;;;;;5.00;44.20;;;;;;2531225;54;20081;-80
2022/03/12 02:41:44;;;;;;;;;;;5.00;44.50;;;;;;2296406;58;20309;-81
2022/03/12 02:44:16;;;;;;;;;;;4.90;42.50;;;;;;2531788;55;20069;-81
2022/03/12 02:46:45;;;;;;;;;;;4.90;43.10;;;;;;2531722;55;20092;-82
2022/03/12 02:49:12;;;;;;;;;;;4.90;43.30;;;;;;2531349;54;20095;-81
2022/03/12 02:51:40;;;;;;;;;;;4.90;42.50;;;;;;2532538;55;20136;-81
2022/03/12 02:54:07;;;;;;;;;;;4.80;43.00;;;;;;2296212;58;20117;-81
2022/03/12 02:56:35;;;;;;;;;;;4.80;43.00;;;;;;2295638;58;20080;-80
2022/03/12 02:59:02;;;;;;;;;;;4.80;42.80;;;;;;2296051;58;20100;-82
2022/03/12 03:01:28;;;;;;;;;;;4.70;42.00;;;;;;2531729;55;20092;-82
2022/03/12 03:03:56;;;;;;;;;;;4.70;42.00;;;;;;2531552;55;20072;-81
2022/03/12 03:06:23;;;;;;;;;;;4.70;43.90;;;;;;2296220;58;20100;-81
2022/03/12 03:08:51;;;;;;;;;;;4.70;42.30;;;;;;2296236;58;20068;-81
2022/03/12 03:11:18;;;;;;;;;;;4.70;43.80;;;;;;2295836;58;20088;-82
2022/03/12 03:13:45;;;;;;;;;;;4.60;42.90;;;;;;2295934;58;20068;-81
2022/03/12 03:16:18;;;;;;;;;;;4.60;41.90;;;;;;2296232;58;20056;-80
2022/03/12 03:18:50;;;;;;;;;;;4.60;44.30;;;;;;2531666;54;20483;-81
2022/03/12 03:21:18;;;;;;;;;;;4.60;43.90;;;;;;2531541;55;20107;-81
2022/03/12 03:23:44;;;;;;;;;;;4.60;44.00;;;;;;2296544;58;20089;-81
2022/03/12 03:26:11;;;;;;;;;;;4.50;44.10;;;;;;2296379;58;20395;-81
2022/03/12 03:28:38;;;;;;;;;;;4.50;42.90;;;;;;2530789;54;20113;-82
2022/03/12 03:31:05;;;;;;;;;;;4.50;44.50;;;;;;2298370;58;20144;-81
2022/03/12 03:33:32;;;;;;;;;;;4.50;43.20;;;;;;2297920;58;20076;-81
2022/03/12 03:35:58;;;;;;;;;;;4.50;44.10;;;;;;2534024;55;20096;-80
2022/03/12 03:38:25;;;;;;;;;;;4.50;43.90;;;;;;2298690;58;20096;-80
2022/03/12 03:40:51;;;;;;;;;;;4.50;44.10;;;;;;2532170;55;20060;-81
2022/03/12 03:43:19;;;;;;;;;;;4.50;43.90;;;;;;2296566;58;20384;-81
2022/03/12 03:45:46;;;;;;;;;;;4.40;43.70;;;;;;2294692;58;20081;-81
2022/03/12 03:48:13;;;;;;;;;;;4.40;43.50;;;;;;2532110;54;20144;-81
2022/03/12 03:50:40;;;;;;;;;;;4.40;43.20;;;;;;2296271;58;20060;-81
2022/03/12 03:53:07;;;;;;;;;;;4.40;43.60;;;;;;2296329;58;20108;-82
2022/03/12 03:55:34;;;;;;;;;;;4.50;44.10;;;;;;2532244;55;20337;-81
2022/03/12 03:58:03;;;;;;;;;;;4.50;45.20;;;;;;2532236;54;20067;-81
2022/03/12 04:00:31;;;;;;;;;;;4.50;45.00;;;;;;2531001;55;20176;-82
2022/03/12 04:03:01;;;;;;;;;;;4.50;44.50;;;;;;2530492;55;20076;-81
2022/03/12 04:05:28;;;;;;;;;;;4.40;43.90;;;;;;2531864;55;20057;-81
2022/03/12 04:07:54;;;;;;;;;;;4.40;43.80;;;;;;2531672;54;20065;-81
2022/03/12 04:10:21;;;;;;;;;;;4.40;43.70;;;;;;2296160;58;20056;-82
2022/03/12 04:12:47;;;;;;;;;;;4.50;44.30;;;;;;2296179;58;20107;-81
2022/03/12 04:15:14;;;;;;;;;;;4.40;43.70;;;;;;2532184;55;20152;-81
2022/03/12 04:17:41;;;;;;;;;;;4.40;43.80;;;;;;2531647;55;20134;-81
2022/03/12 04:20:09;;;;;;;;;;;4.40;44.70;;;;;;2529724;54;20079;-81
2022/03/12 04:22:38;;;;;;;;;;;4.30;44.10;;;;;;2531718;55;20123;-81
2022/03/12 04:25:05;;;;;;;;;;;4.30;44.30;;;;;;2531656;55;20129;-81
2022/03/12 04:27:34;;;;;;;;;;;4.30;44.60;;;;;;2531325;55;20080;-81
2022/03/12 04:30:01;;;;;;;;;;;4.30;44.00;;;;;;2296026;58;20088;-82
2022/03/12 04:32:27;;;;;;;;;;;4.30;43.60;;;;;;2531572;55;20072;-81
2022/03/12 04:34:54;;;;;;;;;;;4.30;44.20;;;;;;2295797;58;20144;-80
2022/03/12 04:37:21;;;;;;;;;;;4.20;42.50;;;;;;2531485;55;20097;-82
2022/03/12 04:39:49;;;;;;;;;;;4.10;42.60;;;;;;2296103;58;20117;-81
2022/03/12 04:42:18;;;;;;;;;;;4.10;43.40;;;;;;2296441;58;20071;-81
2022/03/12 04:44:44;;;;;;;;;;;4.10;44.90;;;;;;2295885;58;20097;-81
2022/03/12 04:47:12;;;;;;;;;;;4.10;44.30;;;;;;2295935;58;20065;-82
2022/03/12 04:49:38;;;;;;;;;;;4.10;43.80;;;;;;2295904;58;20072;-81
2022/03/12 04:52:06;;;;;;;;;;;4.10;43.60;;;;;;2531093;55;20622;-80
2022/03/12 04:54:33;;;;;;;;;;;4.10;44.10;;;;;;2532056;55;20109;-81
2022/03/12 04:57:00;;;;;;;;;;;4.10;43.70;;;;;;2531949;55;20124;-82
2022/03/12 04:59:27;;;;;;;;;;;4.10;43.70;;;;;;2296262;58;20087;-82
2022/03/12 05:01:53;;;;;;;;;;;4.10;44.10;;;;;;2531402;55;20176;-81
2022/03/12 05:04:19;;;;;;;;;;;4.10;44.20;;;;;;2296381;58;20385;-81
2022/03/12 05:06:46;;;;;;;;;;;4.00;42.90;;;;;;2531207;55;20108;-82
2022/03/12 05:09:12;;;;;;;;;;;4.00;42.90;;;;;;2295712;58;20080;-81
2022/03/12 05:11:39;;;;;;;;;;;4.00;43.20;;;;;;2295644;58;20085;-81
2022/03/12 05:14:06;;;;;;;;;;;3.90;43.10;;;;;;2296177;58;20128;-81
2022/03/12 05:16:35;;;;;;;;;;;3.90;43.60;;;;;;2531481;55;20072;-81
2022/03/12 05:19:06;;;;;;;;;;;3.90;43.90;;;;;;2530942;54;20367;-81
2022/03/12 05:21:32;;;;;;;;;;;3.90;43.60;;;;;;2296560;58;20077;-81
2022/03/12 05:23:59;;;;;;;;;;;3.90;43.80;;;;;;2296637;58;20360;-81
2022/03/12 05:26:26;;;;;;;;;;;3.90;44.60;;;;;;2295909;58;20105;-81
2022/03/12 05:28:52;;;;;;;;;;;4.00;44.30;;;;;;2295424;58;20218;-81
2022/03/12 05:31:19;;;;;;;;;;;3.90;44.30;;;;;;2296007;58;20170;-81
2022/03/12 05:33:46;;;;;;;;;;;4.00;44.30;;;;;;2295987;58;20084;-82
2022/03/12 05:36:12;;;;;;;;;;;4.00;45.10;;;;;;2530821;55;20143;-81
2022/03/12 05:38:39;;;;;;;;;;;4.00;44.80;;;;;;2531929;54;20119;-81
2022/03/12 05:41:09;;;;;;;;;;;3.90;44.70;;;;;;2531470;55;20148;-81
2022/03/12 05:43:43;;;;;;;;;;;3.90;44.40;;;;;;2295942;58;20188;-81
2022/03/12 05:46:11;;;;;;;;;;;3.90;44.60;;;;;;2295959;58;20152;-80
2022/03/12 05:48:37;;;;;;;;;;;3.90;43.80;;;;;;2531926;54;20132;-83
2022/03/12 05:51:09;;;;;;;;;;;3.80;44.40;;;;;;2531415;55;20084;-81
2022/03/12 05:53:36;;;;;;;;;;;3.80;45.30;;;;;;2530270;55;20072;-81
2022/03/12 05:56:04;;;;;;;;;;;3.80;44.20;;;;;;2532102;55;20123;-82
2022/03/12 05:58:35;;;;;;;;;;;3.80;43.90;;;;;;2295827;58;20107;-82
2022/03/12 06:01:02;;;;;;;;;;;3.80;44.90;;;;;;2295893;58;20105;-82
2022/03/12 06:03:28;;;;;;;;;;;3.80;45.50;;;;;;2296643;58;20061;-81
2022/03/12 06:05:56;;;;;;;;;;;3.80;45.20;;;;;;2532213;55;20132;-81
2022/03/12 06:08:24;;;;;;;;;;;3.80;45.10;;;;;;2295152;58;20125;-81
2022/03/12 06:10:52;;;;;;;;;;;3.80;44.60;;;;;;2296002;58;20148;-80
2022/03/12 06:13:20;;;;;;;;;;;3.80;44.50;;;;;;2532124;55;20159;-81
2022/03/12 06:15:53;;;;;;;;;;;3.80;44.80;;;;;;2531725;55;20338;-81
2022/03/12 06:18:22;;;;;;;;;;;3.80;44.90;;;;;;2296495;58;20068;-82
2022/03/12 06:20:49;;;;;;;;;;;3.80;44.50;;;;;;2531329;55;20132;-81
2022/03/12 06:23:15;;;;;;;;;;;3.80;44.70;;;;;;2296368;58;20057;-81
2022/03/12 06:25:41;;;;;;;;;;;3.80;44.80;;;;;;2296322;58;20124;-81
2022/03/12 06:28:08;;;;;;;;;;;3.80;45.00;;;;;;2295777;58;20800;-83
2022/03/12 06:30:34;;;;;;;;;;;3.80;44.60;;;;;;2295763;58;20092;-81
2022/03/12 06:33:05;;;;;;;;;;;3.70;45.00;;;;;;2531304;55;20085;-81
2022/03/12 06:35:32;;;;;;;;;;;3.70;45.10;;;;;;2296034;58;20132;-81
2022/03/12 06:37:58;;;;;;;;;;;3.70;46.10;;;;;;2531721;54;20140;-81
2022/03/12 06:40:28;;;;;;;;;;;3.70;45.50;;;;;;2295477;58;20116;-81
2022/03/12 06:42:56;;;;;;;;;;;3.80;46.00;;;;;;2296039;58;20073;-81
2022/03/12 06:45:23;;;;;;;;;;;3.80;46.30;;;;;;2295907;58;20106;-80
2022/03/12 06:47:50;;;;;;;;;;;3.80;45.90;;;;;;2531793;54;20115;-81
2022/03/12 06:50:20;;;;;;;;;;;3.90;45.90;;;;;;2295035;58;20084;-81
2022/03/12 06:52:48;;;;;;;;;;;3.80;45.50;;;;;;2531169;55;20128;-81
2022/03/12 06:55:15;;;;;;;;;;;3.90;46.40;;;;;;2296502;58;20081;-80
2022/03/12 06:57:41;;;;;;;;;;;3.80;45.80;;;;;;2296325;58;20333;-81
2022/03/12 07:00:12;;;;;;;;;;;3.90;46.80;;;;;;2295044;58;20104;-81
2022/03/12 07:02:39;;;;;;;;;;;3.90;47.00;;;;;;2295785;58;20155;-80
2022/03/12 07:05:06;;;;;;;;;;;4.00;46.30;;;;;;2532068;55;20075;-81
2022/03/12 07:07:32;;;;;;;;;;;4.00;45.60;;;;;;2295616;58;20487;-82
2022/03/12 07:09:59;;;;;;;;;;;4.00;46.10;;;;;;2295670;58;20156;-81
2022/03/12 07:12:25;;;;;;;;;;;4.00;46.10;;;;;;2296394;58;20152;-81
2022/03/12 07:14:52;;;;;;;;;;;4.00;46.40;;;;;;2295703;58;20405;-81
2022/03/12 07:17:18;;;;;;;;;;;4.00;45.50;;;;;;2531168;55;20297;-80
2022/03/12 07:19:45;;;;;;;;;;;4.10;45.50;;;;;;2531860;54;20357;-81
2022/03/12 07:22:11;;;;;;;;;;;4.20;45.70;;;;;;2531476;55;20340;-81
2022/03/12 07:24:38;;;;;;;;;;;4.10;45.10;;;;;;2295828;58;20144;-81
2022/03/12 07:27:05;;;;;;;;;;;4.10;45.30;;;;;;2530927;55;20119;-82
2022/03/12 07:29:32;;;;;;;;;;;4.10;45.50;;;;;;2294838;58;20132;-81
2022/03/12 07:31:58;;;;;;;;;;;4.10;45.50;;;;;;2531749;55;20072;-81
2022/03/12 07:34:25;;;;;;;;;;;4.20;45.40;;;;;;2531298;55;20104;-81
2022/03/12 07:36:51;;;;;;;;;;;4.20;44.20;;;;;;2296285;58;20068;-81
2022/03/12 07:39:17;;;;;;;;;;;4.20;44.40;;;;;;2530737;54;20072;-81
2022/03/12 07:41:44;;;;;;;;;;;4.30;44.80;;;;;;2530875;55;20152;-81
2022/03/12 07:44:11;;;;;;;;;;;4.30;45.30;;;;;;2529150;55;20073;-81
2022/03/12 07:46:38;;;;;;;;;;;4.40;44.80;;;;;;2531137;55;20112;-79
2022/03/12 07:49:04;;;;;;;;;;;4.40;44.60;;;;;;2531078;54;20163;-80
2022/03/12 07:51:31;;;;;;;;;;;4.40;44.50;;;;;;2530950;55;20072;-79
2022/03/12 07:53:59;;;;;;;;;;;4.50;44.60;;;;;;2529083;55;20084;-82
2022/03/12 07:56:26;;;;;;;;;;;4.50;44.10;;;;;;2295915;58;20136;-80
2022/03/12 07:58:53;;;;;;;;;;;4.50;44.30;;;;;;2294371;58;20349;-80
2022/03/12 08:01:20;;;;;;;;;;;4.60;43.70;;;;;;2531552;55;20064;-82
2022/03/12 08:03:46;;;;;;;;;;;4.60;43.80;;;;;;2295538;58;20076;-81
2022/03/12 08:06:14;;;;;;;;;;;4.70;44.70;;;;;;2295323;58;20087;-80
2022/03/12 08:08:40;;;;;;;;;;;4.80;45.80;;;;;;2528844;54;20084;-80
2022/03/12 08:11:25;;;;;;;;;;;4.80;45.10;;;;;;2294613;58;20077;-81
2022/03/12 08:13:53;;;;;;;;;;;4.90;45.80;;;;;;2296194;58;20063;-82
2022/03/12 08:16:20;;;;;;;;;;;4.90;46.50;;;;;;2296045;58;20084;-81
2022/03/12 08:18:47;;;;;;;;;;;5.00;47.20;;;;;;2520419;53;70135;-74
2022/03/12 08:21:15;;;;;;;;;;;5.10;46.20;;;;;;2332025;57;20139;-76
2022/03/12 08:23:41;;;;;;;;;;;5.10;46.10;;;;;;2350040;57;20141;-75
2022/03/12 08:26:08;;;;;;;;;;;5.20;46.40;;;;;;2349925;57;20075;-74
2022/03/12 08:28:34;;;;;;;;;;;5.20;45.00;;;;;;2350141;57;20066;-74
2022/03/12 08:31:01;;;;;;;;;;;5.30;46.10;;;;;;2361778;53;20317;-74
2022/03/12 08:33:27;;;;;;;;;;;5.30;45.10;;;;;;2348713;57;20074;-74
2022/03/12 08:35:56;;;;;;;;;;;5.40;44.20;;;;;;2349131;57;20111;-73
2022/03/12 08:38:23;;;;;;;;;;;5.50;44.30;;;;;;2349896;57;20078;-77
2022/03/12 08:40:49;;;;;;;;;;;5.50;43.10;;;;;;2350336;53;20062;-75
2022/03/12 08:43:16;;;;;;;;;;;5.50;43.50;;;;;;2349416;57;20070;-76
2022/03/12 08:45:43;;;;;;;;;;;5.60;43.90;;;;;;2349604;57;20223;-74
2022/03/12 08:48:10;;;;;;;;;;;5.60;45.10;;;;;;2382364;53;21110;-73
2022/03/12 08:50:36;;;;;;;;;;;5.70;44.90;;;;;;2349168;57;20137;-73
2022/03/12 08:53:03;;;;;;;;;;;5.80;44.50;;;;;;2349688;57;20079;-74
2022/03/12 08:55:29;;;;;;;;;;;5.80;44.30;;;;;;2350039;57;20111;-75
2022/03/12 08:57:56;;;;;;;;;;;5.80;44.00;;;;;;2370597;53;20087;-77
2022/03/12 09:00:23;;;;;;;;;;;5.90;44.20;;;;;;2359156;53;20070;-77
2022/03/12 09:02:50;;;;;;;;;;;5.90;44.80;;;;;;2348985;57;20146;-79
2022/03/12 09:05:16;;;;;;;;;;;6.00;43.90;;;;;;2348812;57;20114;-77
2022/03/12 09:07:43;;;;;;;;;;;6.10;42.60;;;;;;2355953;53;20122;-76
2022/03/12 09:10:11;;;;;;;;;;;6.10;41.80;;;;;;2351099;53;20150;-77
2022/03/12 09:12:38;;;;;;;;;;;6.10;43.50;;;;;;2384802;52;20408;-77
2022/03/12 09:15:06;;;;;;;;;;;6.20;43.00;;;;;;2349452;57;20078;-77
2022/03/12 09:17:33;;;;;;;;;;;6.20;42.80;;;;;;2349376;57;20078;-77
2022/03/12 09:19:59;;;;;;;;;;;6.30;42.80;;;;;;2390739;53;20138;-77
2022/03/12 09:22:26;;;;;;;;;;;6.40;43.00;;;;;;2349966;57;20316;-77
2022/03/12 09:24:52;;;;;;;;;;;6.40;43.90;;;;;;2349751;57;20133;-75
2022/03/12 09:27:19;;;;;;;;;;;6.50;44.10;;;;;;2347563;57;20357;-76
2022/03/12 09:29:45;;;;;;;;;;;6.60;43.00;;;;;;2348141;57;20361;-76
2022/03/12 09:32:12;;;;;;;;;;;6.60;42.00;;;;;;2350012;57;20070;-76
2022/03/12 09:34:39;;;;;;;;;;;6.70;42.80;;;;;;2348695;57;20277;-78
2022/03/12 09:37:06;;;;;;;;;;;6.80;43.20;;;;;;2349911;55;20303;-80
2022/03/12 09:39:32;;;;;;;;;;;6.90;43.20;;;;;;2348646;57;20421;-76
2022/03/12 09:42:00;;;;;;;;;;;7.00;43.70;;;;;;2355573;53;20075;-76
2022/03/12 09:44:26;;;;;;;;;;;7.00;43.00;;;;;;2356254;53;20106;-76
2022/03/12 09:46:53;;;;;;;;;;;7.10;42.60;;;;;;2350187;57;20144;-77
2022/03/12 09:49:20;;;;;;;;;;;7.20;42.40;;;;;;2354161;53;20157;-77
2022/03/12 09:51:46;;;;;;;;;;;7.30;42.90;;;;;;2344720;57;20201;-77
2022/03/12 09:54:13;;;;;;;;;;;7.30;42.70;;;;;;2361264;53;20172;-76
2022/03/12 09:56:39;;;;;;;;;;;7.50;42.90;;;;;;2369915;53;20082;-76
2022/03/12 09:59:06;;;;;;;;;;;7.50;43.10;;;;;;2349202;57;20138;-76
2022/03/12 10:01:32;;;;;;;;;;;7.60;42.10;;;;;;2349091;57;20297;-76
2022/03/12 10:03:59;;;;;;;;;;;7.70;41.30;;;;;;2348708;57;20458;-76
2022/03/12 10:06:25;;;;;;;;;;;7.70;41.50;;;;;;2348997;57;20142;-76
2022/03/12 10:08:52;;;;;;;;;;;7.80;41.30;;;;;;2352219;53;20365;-76
2022/03/12 10:11:18;;;;;;;;;;;7.80;41.10;;;;;;2349552;57;20304;-76
2022/03/12 10:13:45;;;;;;;;;;;7.90;42.60;;;;;;2359296;53;20066;-77
2022/03/12 10:16:12;;;;;;;;;;;7.90;41.20;;;;;;2426636;53;20139;-76
2022/03/12 10:18:41;;;;;;;;;;;8.00;41.60;;;;;;2349517;57;20078;-77
2022/03/12 10:21:07;;;;;;;;;;;8.00;41.20;;;;;;2348097;57;20054;-76
2022/03/12 10:23:34;;;;;;;;;;;8.10;41.10;;;;;;2352660;53;20101;-76
2022/03/12 10:26:02;;;;;;;;;;;8.10;39.60;;;;;;2349411;57;20070;-75
2022/03/12 10:28:34;;;;;;;;;;;8.20;41.30;;;;;;2349169;57;20087;-77
2022/03/12 10:31:05;;;;;;;;;;;8.20;41.40;;;;;;2349632;57;20137;-76
2022/03/12 10:33:33;;;;;;;;;;;8.30;41.60;;;;;;2350353;57;20118;-74
2022/03/12 10:36:10;;;;;;;;;;;8.30;40.80;;;;;;2349343;57;20125;-74
2022/03/12 10:38:40;;;;;;;;;;;8.40;41.20;;;;;;2455879;53;20326;-74
2022/03/12 10:41:07;;;;;;;;;;;8.40;40.30;;;;;;2456255;53;20130;-74
2022/03/12 10:43:42;;;;;;;;;;;8.40;39.80;;;;;;2541186;53;20070;-76
2022/03/12 10:46:09;;;;;;;;;;;8.50;39.70;;;;;;2375166;53;20078;-76
2022/03/12 10:48:38;;;;;;;;;;;8.50;40.40;;;;;;2464399;53;20099;-76
2022/03/12 10:51:04;;;;;;;;;;;8.60;39.90;;;;;;2348920;57;20123;-76
2022/03/12 10:56:08;;;;;;;;;;;8.70;40.50;;;;;;2357419;57;20060;-76
2022/03/12 10:58:34;;;;;;;;;;;8.80;40.50;;;;;;2378330;56;20121;-76
2022/03/12 11:01:02;;;;;;;;;;;8.80;39.60;;;;;;2370259;56;20090;-76
2022/03/12 11:03:29;;;;;;;;;;;8.90;38.60;;;;;;2348548;57;20150;-75
2022/03/12 11:05:56;;;;;;;;;;;8.90;39.10;;;;;;2349026;57;20388;-75
2022/03/12 11:08:23;;;;;;;;;;;9.00;39.80;;;;;;2349310;57;20439;-76
2022/03/12 11:10:51;;;;;;;;;;;9.00;38.30;;;;;;2349089;57;20063;-75
2022/03/12 11:13:38;;;;;;;;;;;9.00;38.60;;;;;;2358308;53;20074;-76
2022/03/12 11:19:06;;;;;;;;;;;9.20;39.80;;;;;;2354772;57;20195;-76
2022/03/12 11:21:37;;;;;;;;;;;9.20;39.70;;;;;;2387555;56;20074;-76
2022/03/12 11:24:05;;;;;;;;;;;9.30;40.00;;;;;;2466471;52;20053;-76
2022/03/12 11:26:31;;;;;;;;;;;9.40;39.60;;;;;;2405466;56;20117;-76
2022/03/12 11:28:59;;;;;;;;;;;9.50;38.80;;;;;;2405446;56;20117;-75
2022/03/12 11:31:39;;;;;;;;;;;9.50;37.40;;;;;;2405474;56;20127;-76
2022/03/12 11:34:12;;;;;;;;;;;9.60;37.90;;;;;;2406345;56;20140;-76
2022/03/12 11:36:42;;;;;;;;;;;9.60;36.70;;;;;;2404803;56;20084;-76
2022/03/12 11:42:00;;;;;;;;;;;9.80;36.70;;;;;;2343313;57;20062;-74
2022/03/12 11:44:27;;;;;;;;;;;9.80;36.10;;;;;;2349797;57;20062;-74
2022/03/12 11:46:54;;;;;;;;;;;9.90;37.40;;;;;;2383885;53;20217;-73
2022/03/12 11:49:22;;;;;;;;;;;10.00;36.20;;;;;;2349190;57;20074;-74
2022/03/12 11:51:48;;;;;;;;;;;10.00;36.10;;;;;;2377436;53;20098;-75
2022/03/12 11:54:15;;;;;;;;;;;10.10;37.10;;;;;;2350576;57;20059;-75
2022/03/12 11:56:41;;;;;;;;;;;10.20;37.20;;;;;;2382710;53;20279;-76
2022/03/12 11:59:08;;;;;;;;;;;10.30;36.10;;;;;;2349762;57;20189;-74
2022/03/12 12:01:37;;;;;;;;;;;10.40;36.80;;;;;;2348797;57;20078;-75
2022/03/12 12:04:04;;;;;;;;;;;10.50;35.50;;;;;;2365531;53;20090;-78
2022/03/12 12:06:30;;;;;;;;;;;10.50;37.00;;;;;;2350741;57;20074;-77
2022/03/12 12:11:35;;;;;;;;;;;10.70;38.40;;;;;;2332590;57;20058;-80
2022/03/12 12:14:01;;;;;;;;;;;10.90;38.00;;;;;;2359620;53;20389;-79
2022/03/12 12:16:29;;;;;;;;;;;10.90;37.50;;;;;;2352912;57;20070;-79
2022/03/12 12:18:55;;;;;;;;;;;10.90;35.30;;;;;;2370107;53;20073;-79
2022/03/12 12:21:22;;;;;;;;;;;11.00;36.30;;;;;;2390333;56;20061;-79
2022/03/12 12:23:48;;;;;;;;;;;11.10;37.00;;;;;;2389618;56;20117;-78
2022/03/12 12:28:51;;;;;;;;;;;11.20;35.10;;;;;;2358343;57;20081;-75
2022/03/12 12:31:22;;;;;;;;;;;11.20;34.60;;;;;;2389534;56;20104;-75
2022/03/12 12:33:49;;;;;;;;;;;11.30;35.50;;;;;;2454377;52;20076;-79
2022/03/12 12:36:17;;;;;;;;;;;11.30;35.00;;;;;;2438216;52;20060;-78
2022/03/12 12:39:03;;;;;;;;;;;11.40;35.60;;;;;;2431929;52;20121;-79
2022/03/12 12:41:50;;;;;;;;;;;11.50;33.90;;;;;;2422263;52;20052;-77
2022/03/12 12:44:17;;;;;;;;;;;11.50;33.00;;;;;;2406236;56;20088;-76
2022/03/12 12:46:44;;;;;;;;;;;11.60;33.70;;;;;;2432910;52;20223;-78
2022/03/12 12:49:14;;;;;;;;;;;11.70;35.70;;;;;;2407762;56;20073;-77
2022/03/12 12:51:51;;;;;;;;;;;11.70;36.60;;;;;;2407638;56;20064;-77
2022/03/12 12:54:28;;;;;;;;;;;11.80;33.60;;;;;;2464151;52;20115;-78
2022/03/12 12:56:59;;;;;;;;;;;11.90;32.80;;;;;;2407298;56;20112;-79
2022/03/12 12:59:36;;;;;;;;;;;11.90;31.90;;;;;;2407568;56;20069;-79
2022/03/12 13:02:04;;;;;;;;;;;11.90;31.30;;;;;;2407270;56;20107;-80
2022/03/12 13:04:47;;;;;;;;;;;11.90;34.90;;;;;;2427329;52;20096;-79
2022/03/12 13:07:24;;;;;;;;;;;12.00;35.50;;;;;;2415454;52;20072;-79
2022/03/12 13:09:55;;;;;;;;;;;12.10;34.50;;;;;;2407607;56;20069;-76
2022/03/12 13:12:36;;;;;;;;;;;12.10;34.20;;;;;;2407669;56;20068;-77
2022/03/12 13:15:04;;;;;;;;;;;12.20;33.50;;;;;;2407593;56;20084;-76
2022/03/12 13:17:32;;;;;;;;;;;12.20;34.00;;;;;;2408138;56;20151;-73
2022/03/12 13:19:59;;;;;;;;;;;12.20;34.70;;;;;;2407533;56;20166;-73
2022/03/12 13:22:36;;;;;;;;;;;12.30;35.40;;;;;;2407607;56;20339;-74
2022/03/12 13:25:04;;;;;;;;;;;12.40;35.30;;;;;;2407750;56;20080;-73
2022/03/12 13:27:31;;;;;;;;;;;12.50;34.60;;;;;;2407392;56;20060;-74
2022/03/12 13:30:09;;;;;;;;;;;12.50;34.60;;;;;;2406950;56;20065;-74
2022/03/12 13:32:36;;;;;;;;;;;12.60;35.40;;;;;;2407517;56;20144;-74
2022/03/12 13:35:03;;;;;;;;;;;12.60;34.90;;;;;;2407317;56;20065;-73
2022/03/12 13:37:29;;;;;;;;;;;12.70;33.50;;;;;;2407285;56;20084;-74
2022/03/12 13:40:00;;;;;;;;;;;12.70;33.30;;;;;;2406576;56;20142;-74
2022/03/12 13:42:28;;;;;;;;;;;12.70;33.40;;;;;;2406556;56;20072;-73
2022/03/12 13:44:55;;;;;;;;;;;12.80;33.70;;;;;;2406634;56;20123;-73
2022/03/12 13:47:23;;;;;;;;;;;12.90;34.40;;;;;;2445977;52;20120;-72
2022/03/12 13:49:51;;;;;;;;;;;12.90;35.60;;;;;;2404948;56;20076;-73
2022/03/12 13:52:18;;;;;;;;;;;13.00;33.00;;;;;;2467733;52;20072;-73
2022/03/12 13:54:44;;;;;;;;;;;13.00;32.10;;;;;;2507170;52;20681;-74
2022/03/12 13:57:11;;;;;;;;;;;13.00;33.70;;;;;;2406176;56;20064;-75
2022/03/12 13:59:38;;;;;;;;;;;13.00;35.20;;;;;;2406504;56;20080;-73
2022/03/12 14:02:12;;;;;;;;;;;13.10;34.90;;;;;;2406812;56;20213;-74
2022/03/12 14:04:39;;;;;;;;;;;13.10;35.00;;;;;;2407004;56;20121;-75
2022/03/12 14:07:15;;;;;;;;;;;13.10;32.50;;;;;;2406746;56;20089;-75
2022/03/12 14:09:46;;;;;;;;;;;13.10;34.20;;;;;;2404893;56;20080;-75
2022/03/12 14:12:17;;;;;;;;;;;13.10;32.10;;;;;;2406197;56;20073;-74
2022/03/12 14:14:45;;;;;;;;;;;13.10;33.30;;;;;;2407121;56;20072;-76
2022/03/12 14:17:12;;;;;;;;;;;13.20;36.10;;;;;;2407186;56;20148;-76
2022/03/12 14:19:39;;;;;;;;;;;13.20;33.00;;;;;;2442848;52;20084;-76
2022/03/12 14:22:06;;;;;;;;;;;13.20;33.60;;;;;;2296019;58;20084;-75
2022/03/12 14:24:34;;;;;;;;;;;13.20;33.00;;;;;;2295856;58;20065;-75
2022/03/12 14:27:02;;;;;;;;;;;13.20;34.60;;;;;;2294989;58;20465;-76
2022/03/12 14:29:29;;;;;;;;;;;13.20;36.00;;;;;;2295390;58;20124;-76
2022/03/12 14:31:57;;;;;;;;;;;13.30;33.10;;;;;;2295341;58;20061;-76
2022/03/12 14:34:24;;;;;;;;;;;13.30;35.10;;;;;;2531678;55;20127;-76
2022/03/12 14:36:51;;;;;;;;;;;13.30;36.20;;;;;;2295527;58;20068;-76
2022/03/12 14:39:18;;;;;;;;;;;13.30;36.40;;;;;;2530610;55;20167;-76
2022/03/12 14:41:45;;;;;;;;;;;13.40;35.70;;;;;;2295164;58;20125;-75
2022/03/12 14:44:12;;;;;;;;;;;13.40;34.40;;;;;;2295056;58;20231;-76
2022/03/12 14:46:41;;;;;;;;;;;13.40;33.60;;;;;;2531265;55;20072;-76